岡山グライダークラブ活動状況掲示板あなたは無料カウンター人目の訪問者です

岡山グライダークラブ
岡山市浦安南町639-1 岡南飛行場
 使用機:シャイベ式 SF25C型 ファルケ   JA2330
      ヴァレンティン式17E型 タイフーン  JA2342
 練習日:毎日曜日  クラブルーム:電話 086-265-1810
この掲示板は岡山グライダークラブの活動状況をお知らせする掲示板です。
!!!この掲示板は投稿規制をしています。!!!
クラブ関連各種情報は 岡山グライダークラブクラブルーム      を       .
  ブリーフイング情報は  岡山グライダークラブブリーフィングルーム  をご覧下さい。 .
※写真はクリックすると拡大して見ることが出来ます。
岡南飛行場へのアクセス等は 岡南飛行場管理事務所 をご覧ください。
クラブの ホームページ ができました。

 
8月30日
by OGC at 2020/8/30(日) 20:14:26 No.20200830201052  削除コメント
1024 x 768 x 83,531バイト
No.1

08月31日
本日の参加者
  会員      17名
  その他      0名


@本日の様子






METAR
RJBK 300000Z 14003KT 100V200 30KM FEW035CU SCT025CU BKN/// 30/25 Q1010 A2984
RJOB 300000Z VRB01KT 9999 FEW020 29/24 Q1012
RJOT 300000Z VRB02KT 9999 FEW015 SCT070 BKN100 28/25 Q1012
RJOA 300000Z 13003KT 060V180 9999 FEW025 30/23 Q1012
TAF
RJOB 292305Z 3000/3106 12005KT 9999 FEW020
     TEMPO 3005/3007 TS FEW015 FEW020CB SCT040
     TEMPO 3007/3010 2000 +TSRA BR FEW005 SCT015 FEW020CB BKN030
RJOT 292307Z 3000/3106 05007KT 9999 FEW025 SCT035
     TEMPO 3003/3006 TS FEW020 FEW025CB SCT030
RJOA 292305Z 3000/3106 14005KT 9999 FEW025
     TEMPO 3006/3009 TS FEW020 FEW025CB SCT030
     BECMG 3009/3011 32004KT
     TEMPO 3009/3012 3000 TSRA BR FEW005 SCT015 BKN025 FEW025CB
     BECMG 3021/3100 14005KT

本日は、先週に続き、積乱雲が午後3時過ぎから岡山空港あたりに発生し、気流も荒れてきたため、早めにフライトを終了しました。
ファルケは、積雲が発達していたので、エンジンカットでソアリングの訓練を楽しんで、一方、タイフーンは、社内試験フライトと整備を行い、次週、耐空検査を行う予定です。


解散    17:10

1番機  10:35離陸 撤収機  15:50着陸 

SF25C JA2330 ファルケ     07Flt.3h20hmin  
17E   JA2342 タイフーン    01Flt.0h45min  
合計                    08Flt.4h05min

    << 戻る || ホームページ || 最新の掲示板へ